UNTT/TOF METAR and TAF weather

Enter ICAO airport designator
Station Type Date Time Source
UNTT METAR 2021/01/16 02:00 UTC NOAA

UNTT 160200Z 20006MPS CAVOK M18/M22 Q1034 R21/490145 NOSIG RMK QFE760


Station Type Date Time Source
UNTT Decoded METAR 2021/01/16 02:00 UTC NOAA

Station name not available
Jan 15, 2021 - 09:00 PM EST / 2021.01.16 0200 UTC
Wind: from the SSW (200 degrees) at 13 MPH (12 KT):0
Visibility: greater than 7 mile(s):0
Temperature: 0 F (-18 C)
Windchill: -18 F (-28 C):2
Dew Point: -7 F (-22 C)
Relative Humidity: 70%
Pressure (altimeter): 30.53 in. Hg (1034 hPa)
ob: UNTT 160200Z 20006MPS CAVOK M18/M22 Q1034 R21/490145 NOSIG RMK QFE760
cycle: 2

Station Type Date Time Source
UNTT TAF UTC NOAA

Error!

Example: see airport list